KILE/ILE METAR and TAF weather

Enter ICAO airport designator
Station Type Date Time Source
KILE METAR 2020/04/06 15:56 UTC NOAA

KILE 061556Z AUTO 12006KT 10SM OVC014 19/17 A3003 RMK AO2 SLP161 T01890167


Station Type Date Time Source
KILE Decoded METAR 2020/04/06 15:56 UTC NOAA

Killeen, Skylark Field Airport, TX, United States (KILE) 31-05N 097-41W
Apr 06, 2020 - 11:56 AM EDT / 2020.04.06 1556 UTC
Wind: from the ESE (120 degrees) at 7 MPH (6 KT):0
Visibility: 10 mile(s):0
Sky conditions: overcast
Temperature: 66.0 F (18.9 C)
Dew Point: 62.1 F (16.7 C)
Relative Humidity: 87%
Pressure (altimeter): 30.03 in. Hg (1016 hPa)
ob: KILE 061556Z AUTO 12006KT 10SM OVC014 19/17 A3003 RMK AO2 SLP161 T01890167
cycle: 16

Station Type Date Time Source
KILE TAF UTC NOAA

Error!

Example: see airport list